createdAt,value
2019-03-18T17:01:50.259Z,0
2019-03-18T17:02:16.011Z,0
2019-03-18T17:02:41.995Z,0
2019-03-18T17:03:08.017Z,0
2019-03-18T17:03:34.350Z,0
2019-03-18T17:04:00.349Z,0
2019-03-18T17:04:26.083Z,0
2019-03-18T17:04:51.980Z,0
2019-03-18T17:05:18.017Z,0
2019-03-18T17:05:43.993Z,0
2019-03-18T17:06:10.141Z,6.25
2019-03-18T17:06:36.026Z,5.96
2019-03-18T17:07:02.016Z,5.93
2019-03-18T17:07:28.016Z,7
2019-03-18T17:07:54.014Z,7.35
2019-03-18T17:08:20.089Z,5.78
2019-03-18T17:08:46.031Z,4.38
2019-03-18T17:09:12.017Z,5.52
2019-03-18T17:09:38.014Z,5.46
2019-03-18T17:10:04.018Z,5.46
2019-03-18T17:10:30.103Z,5.46
2019-03-18T17:10:56.020Z,5.46
2019-03-18T17:11:22.001Z,5.46
2019-03-18T17:11:48.022Z,5.46
2019-03-18T17:12:14.002Z,5.46
2019-03-18T17:12:40.118Z,5.46
2019-03-18T17:13:06.102Z,5.46
2019-03-18T17:13:31.999Z,5.46
2019-03-18T17:13:58.027Z,5.46
2019-03-18T17:14:23.998Z,5.46
2019-03-18T17:14:50.108Z,5.46
2019-03-18T17:15:16.036Z,6.7
2019-03-18T17:15:42.083Z,6.7
2019-03-18T17:16:08.025Z,6.7
2019-03-18T17:16:34.022Z,6.7
2019-03-18T17:17:00.126Z,6.7
2019-03-18T17:17:26.039Z,6.7
2019-03-18T17:17:52.020Z,6.7
2019-03-18T17:18:18.047Z,6.7
2019-03-18T17:18:44.039Z,6.7
2019-03-18T17:19:10.124Z,6.7
2019-03-18T17:19:36.043Z,6.7
2019-03-18T17:20:02.018Z,6.7
2019-03-18T17:20:28.044Z,10.8
2019-03-18T17:20:54.043Z,10.8
2019-03-18T17:21:20.135Z,10.8
2019-03-18T17:21:46.050Z,10.8
2019-03-18T17:22:12.037Z,10.8
2019-03-18T17:22:38.049Z,10.8
2019-03-18T17:23:04.019Z,10.8
2019-03-18T17:23:30.123Z,10.8
2019-03-18T17:23:56.047Z,10.8
2019-03-18T17:24:22.023Z,10.8
2019-03-18T17:24:48.049Z,10.8
2019-03-18T17:25:14.026Z,11.7
2019-03-18T17:25:40.132Z,11.7
2019-03-18T17:26:06.054Z,11.7
2019-03-18T17:26:32.051Z,11.7
2019-03-18T17:26:58.054Z,11.7
2019-03-18T17:27:24.029Z,11.7
2019-03-18T17:27:50.138Z,11.7
2019-03-18T17:28:16.066Z,11.7
2019-03-18T17:28:42.040Z,11.7
2019-03-18T17:29:08.130Z,11.7
2019-03-18T17:29:34.055Z,11.7
2019-03-18T17:30:00.134Z,11.7
2019-03-18T17:30:26.063Z,10.3
2019-03-18T17:30:52.028Z,10.3
2019-03-18T17:31:18.055Z,10.3
2019-03-18T17:31:44.046Z,10.3
2019-03-18T17:32:10.212Z,10.3
2019-03-18T17:32:36.067Z,10.3
2019-03-18T17:33:02.109Z,10.3
2019-03-18T17:33:28.070Z,10.3
2019-03-18T17:33:54.035Z,10.3
2019-03-18T17:34:20.144Z,10.3
2019-03-18T17:34:46.111Z,10.3
2019-03-18T17:35:12.062Z,8.7
2019-03-18T17:35:38.066Z,8.7
2019-03-18T17:36:04.036Z,8.7
2019-03-18T17:36:30.153Z,8.7
2019-03-18T17:36:56.074Z,8.7
2019-03-18T17:37:22.048Z,8.7
2019-03-18T17:37:48.133Z,8.7
2019-03-18T17:38:14.063Z,8.7
2019-03-18T17:38:40.157Z,8.7
2019-03-18T17:39:06.069Z,8.7
2019-03-18T17:39:32.041Z,8.7
2019-03-18T17:39:58.073Z,8.7
2019-03-18T17:40:24.053Z,8.2
2019-03-18T17:40:50.225Z,8.2
2019-03-18T17:41:16.069Z,8.2
2019-03-18T17:41:42.044Z,8.2
2019-03-18T17:42:08.078Z,8.2
2019-03-18T17:42:34.045Z,8.2
2019-03-18T17:43:00.166Z,8.2
2019-03-18T17:43:26.165Z,8.2
2019-03-18T17:43:52.257Z,8.2
2019-03-18T17:44:18.071Z,8.2
2019-03-18T17:44:44.051Z,8.2
2019-03-18T17:45:10.200Z,8.2
2019-03-18T17:45:36.075Z,8.3
2019-03-18T17:46:02.063Z,8.3
2019-03-18T17:46:28.153Z,8.3
2019-03-18T17:46:54.081Z,8.3
2019-03-18T17:47:20.157Z,8.3
2019-03-18T17:47:46.079Z,8.3
2019-03-18T17:48:12.055Z,8.3
2019-03-18T17:48:38.091Z,8.3
2019-03-18T17:49:04.151Z,8.3
2019-03-18T17:49:30.173Z,8.3
2019-03-18T17:49:56.085Z,8.3
2019-03-18T17:50:22.058Z,8.3
2019-03-18T17:50:48.088Z,8.3
2019-03-18T17:51:14.069Z,8.3
2019-03-18T17:51:40.238Z,8.3
2019-03-18T17:52:06.085Z,8.3
2019-03-18T17:52:32.108Z,8.3
2019-03-18T17:52:58.092Z,8.3
2019-03-18T17:53:24.058Z,8.3
2019-03-18T17:53:50.181Z,8.3
2019-03-18T17:54:16.174Z,8.3
2019-03-18T17:54:42.086Z,8.3
2019-03-18T17:55:08.088Z,8.2
2019-03-18T17:55:34.098Z,8.2
2019-03-18T17:56:00.172Z,8.2
2019-03-18T17:56:26.093Z,8.2
2019-03-18T17:56:52.090Z,8.2
2019-03-18T17:57:18.093Z,8.2
2019-03-18T17:57:44.092Z,8.2
2019-03-18T17:58:10.186Z,8.2
2019-03-18T17:58:36.099Z,8.2
2019-03-18T17:59:02.070Z,8.2
2019-03-18T17:59:28.098Z,8.2
2019-03-18T17:59:54.096Z,8.2
2019-03-18T18:00:20.212Z,7
2019-03-18T18:00:46.101Z,7
2019-03-18T18:01:12.066Z,7
2019-03-18T18:01:38.097Z,7
2019-03-18T18:02:04.070Z,7
2019-03-18T18:02:30.189Z,7
2019-03-18T18:02:56.175Z,7
2019-03-18T18:03:22.073Z,7
2019-03-18T18:03:48.106Z,7
2019-03-18T18:04:14.077Z,7
2019-03-18T18:04:40.187Z,7
2019-03-18T18:05:06.113Z,9.6
2019-03-18T18:05:32.157Z,9.6
2019-03-18T18:05:58.103Z,9.6
2019-03-18T18:06:24.101Z,9.6
2019-03-18T18:06:50.184Z,9.6
2019-03-18T18:07:16.108Z,9.6
2019-03-18T18:07:42.080Z,9.6
2019-03-18T18:08:08.107Z,9.6
2019-03-18T18:08:34.106Z,9.6
2019-03-18T18:09:00.188Z,9.6
2019-03-18T18:09:26.110Z,9.6
2019-03-18T18:09:52.082Z,9.6
2019-03-18T18:10:18.110Z,6.2
2019-03-18T18:10:44.080Z,6.2
2019-03-18T18:11:10.205Z,6.2
2019-03-18T18:11:36.197Z,6.2
2019-03-18T18:12:02.152Z,6.2
2019-03-18T18:12:28.106Z,6.2
2019-03-18T18:12:54.089Z,6.2
2019-03-18T18:13:20.196Z,6.2
2019-03-18T18:13:46.138Z,6.2
2019-03-18T18:14:12.102Z,6.2
2019-03-18T18:14:38.187Z,6.2
2019-03-18T18:15:04.121Z,6.2
2019-03-18T18:15:30.193Z,8.1
2019-03-18T18:15:56.116Z,8.1
2019-03-18T18:16:22.092Z,8.1
2019-03-18T18:16:48.121Z,8.1
2019-03-18T18:17:14.104Z,8.1
2019-03-18T18:17:40.277Z,8.1
2019-03-18T18:18:06.471Z,8.1
2019-03-18T18:18:32.098Z,8.1
2019-03-18T18:18:58.126Z,8.1
2019-03-18T18:19:24.097Z,8.1
2019-03-18T18:19:50.222Z,8.1
2019-03-18T18:20:16.219Z,6.9
2019-03-18T18:20:42.095Z,6.9
2019-03-18T18:21:08.131Z,6.9
2019-03-18T18:21:34.266Z,6.9
2019-03-18T18:22:00.551Z,6.9
2019-03-18T18:22:26.128Z,6.9
2019-03-18T18:22:52.135Z,6.9
2019-03-18T18:23:18.128Z,6.9
2019-03-18T18:23:44.132Z,6.9
2019-03-18T18:24:10.212Z,6.9
2019-03-18T18:24:36.135Z,6.9
2019-03-18T18:25:02.101Z,6.9
2019-03-18T18:25:28.141Z,7.5
2019-03-18T18:25:54.206Z,7.5
2019-03-18T18:26:20.213Z,7.5
2019-03-18T18:26:46.131Z,7.5
2019-03-18T18:27:12.111Z,7.5
2019-03-18T18:27:38.140Z,7.5
2019-03-18T18:28:04.112Z,7.5
2019-03-18T18:28:30.223Z,7.5
2019-03-18T18:28:56.137Z,7.5
2019-03-18T18:29:48.144Z,7.5
2019-03-18T18:30:14.117Z,8.8
2019-03-18T18:30:40.219Z,8.8
2019-03-18T18:31:06.332Z,8.8
2019-03-18T18:31:32.200Z,8.8
2019-03-18T18:31:58.139Z,8.8
2019-03-18T18:32:24.142Z,8.8
2019-03-18T18:32:50.228Z,8.8
2019-03-18T18:33:16.144Z,8.8
2019-03-18T18:33:42.113Z,8.8
2019-03-18T18:34:08.142Z,8.8
2019-03-18T18:34:34.140Z,8.8
2019-03-18T18:35:00.277Z,8.8
2019-03-18T18:35:26.145Z,6.3
2019-03-18T18:35:52.119Z,6.3
2019-03-18T18:36:18.147Z,6.3
2019-03-18T18:36:44.161Z,6.3
2019-03-18T18:37:10.296Z,6.3
2019-03-18T18:37:36.187Z,6.3
2019-03-18T18:38:02.157Z,6.3
2019-03-18T18:38:28.156Z,6.3
2019-03-18T18:38:54.130Z,6.3
2019-03-18T18:39:20.245Z,6.3
2019-03-18T18:39:46.229Z,6.3
2019-03-18T18:40:12.127Z,6.1
2019-03-18T18:40:38.152Z,6.1
2019-03-18T18:41:04.125Z,6.1
2019-03-18T18:41:30.238Z,6.1
2019-03-18T18:41:56.163Z,6.1
2019-03-18T18:42:22.211Z,6.1
2019-03-18T18:42:48.157Z,6.1
2019-03-18T18:43:14.129Z,6.1
2019-03-18T18:43:40.239Z,6.1
2019-03-18T18:44:06.160Z,6.1
2019-03-18T18:44:32.133Z,6.1
2019-03-18T18:44:58.156Z,6.1
2019-03-18T18:45:24.156Z,6.1
2019-03-18T18:45:50.242Z,6.1
2019-03-18T18:46:16.167Z,6.1
2019-03-18T18:46:42.138Z,6.1
2019-03-18T18:47:08.165Z,6.1
2019-03-18T18:47:34.161Z,6.1
2019-03-18T18:48:00.249Z,6.1
2019-03-18T18:48:26.167Z,6.1
2019-03-18T18:48:52.136Z,6.1
2019-03-18T18:49:18.164Z,6.1
2019-03-18T18:49:44.137Z,6.1
2019-03-18T18:50:10.246Z,5.7
2019-03-18T18:50:36.172Z,5.7
2019-03-18T18:51:02.169Z,5.7
2019-03-18T18:51:28.245Z,5.7
2019-03-18T18:51:54.195Z,5.7
2019-03-18T18:52:20.257Z,5.7
2019-03-18T18:52:46.174Z,5.7
2019-03-18T18:53:12.146Z,5.7
2019-03-18T18:53:38.183Z,5.7
2019-03-18T18:54:04.262Z,5.7
2019-03-18T18:54:30.250Z,5.7
2019-03-18T18:54:56.180Z,5.7
2019-03-18T18:55:22.144Z,7.7
2019-03-18T18:55:48.237Z,7.7
2019-03-18T18:56:14.162Z,7.7
2019-03-18T18:56:40.345Z,7.7
2019-03-18T18:57:06.178Z,7.7
2019-03-18T18:57:32.148Z,7.7
2019-03-18T18:57:58.184Z,7.7
2019-03-18T18:58:24.148Z,7.7
2019-03-18T18:58:50.269Z,7.7
2019-03-18T18:59:16.313Z,7.7
2019-03-18T19:00:08.179Z,7.1
2019-03-18T19:00:34.164Z,7.1
2019-03-18T19:01:00.275Z,7.1
2019-03-18T19:01:26.184Z,7.1
2019-03-18T19:01:52.184Z,7.1
2019-03-18T19:02:18.186Z,7.1
2019-03-18T19:02:44.184Z,7.1
2019-03-18T19:03:10.262Z,7.1
2019-03-18T19:03:36.185Z,7.1
2019-03-18T19:04:02.161Z,7.1
2019-03-18T19:04:28.188Z,7.1
2019-03-18T19:04:54.185Z,7.1
2019-03-18T19:05:20.274Z,7.1
2019-03-18T19:05:46.188Z,7.1
2019-03-18T19:06:12.164Z,7.1
2019-03-18T19:06:38.192Z,7.1
2019-03-18T19:07:04.193Z,7.1
2019-03-18T19:07:30.271Z,7.1
2019-03-18T19:07:56.305Z,7.1
2019-03-18T19:08:22.169Z,7.1
2019-03-18T19:08:48.199Z,7.1
2019-03-18T19:09:14.166Z,7.1
2019-03-18T19:09:40.289Z,7.1
2019-03-18T19:10:06.273Z,4.9
2019-03-18T19:10:32.192Z,4.9
2019-03-18T19:10:58.199Z,4.9
2019-03-18T19:11:24.183Z,4.9
2019-03-18T19:11:50.283Z,4.9
2019-03-18T19:12:16.201Z,4.9
2019-03-18T19:12:42.176Z,4.9
2019-03-18T19:13:08.272Z,4.9
2019-03-18T19:13:34.512Z,4.9
2019-03-18T19:14:00.419Z,4.9
2019-03-18T19:14:26.200Z,4.9
2019-03-18T19:14:52.179Z,4.9
2019-03-18T19:15:18.253Z,5.4
2019-03-18T19:15:44.193Z,5.4
2019-03-18T19:16:10.285Z,5.4
2019-03-18T19:16:36.205Z,5.4
2019-03-18T19:17:02.174Z,5.4
2019-03-18T19:17:28.204Z,5.4
2019-03-18T19:17:54.177Z,5.4
2019-03-18T19:18:20.284Z,5.4
2019-03-18T19:18:46.209Z,5.4
2019-03-18T19:19:12.206Z,5.4
2019-03-18T19:19:38.209Z,5.4
2019-03-18T19:20:04.183Z,5.4
2019-03-18T19:20:30.299Z,5.4
2019-03-18T19:20:56.213Z,5.4
2019-03-18T19:21:22.214Z,5.4
2019-03-18T19:21:48.206Z,5.4
2019-03-18T19:22:14.205Z,5.4
2019-03-18T19:22:40.292Z,5.4
2019-03-18T19:23:06.239Z,5.4
2019-03-18T19:23:32.425Z,5.4
2019-03-18T19:23:58.207Z,5.4
2019-03-18T19:24:24.206Z,5.4
2019-03-18T19:24:50.293Z,5.4
2019-03-18T19:25:16.221Z,5.2
2019-03-18T19:25:42.184Z,5.2
2019-03-18T19:26:08.585Z,5.2
2019-03-18T19:26:34.199Z,5.2
2019-03-18T19:27:00.368Z,5.2
2019-03-18T19:27:26.211Z,5.2
2019-03-18T19:27:52.188Z,5.2
2019-03-18T19:28:18.214Z,5.2
2019-03-18T19:28:44.190Z,5.2
2019-03-18T19:29:10.298Z,5.2
2019-03-18T19:29:36.213Z,5.2
2019-03-18T19:30:02.203Z,4.4
2019-03-18T19:30:28.215Z,4.4
2019-03-18T19:30:54.232Z,4.4
2019-03-18T19:31:20.339Z,4.4
2019-03-18T19:31:46.215Z,4.4
2019-03-18T19:32:12.192Z,4.4
2019-03-18T19:32:38.224Z,4.4
2019-03-18T19:33:04.216Z,4.4
2019-03-18T19:33:30.378Z,4.4
2019-03-18T19:33:56.221Z,4.4
2019-03-18T19:34:22.200Z,4.4
2019-03-18T19:34:48.238Z,4.4
2019-03-18T19:35:14.243Z,6.5
2019-03-18T19:35:40.398Z,6.5
2019-03-18T19:36:06.305Z,6.5
2019-03-18T19:36:32.199Z,6.5
2019-03-18T19:36:58.231Z,6.5
2019-03-18T19:37:24.202Z,6.5
2019-03-18T19:37:50.310Z,6.5
2019-03-18T19:38:16.226Z,6.5
2019-03-18T19:38:42.230Z,6.5
2019-03-18T19:39:08.226Z,6.5
2019-03-18T19:39:34.238Z,6.5
2019-03-18T19:40:00.310Z,6.5
2019-03-18T19:40:26.232Z,6.5
2019-03-18T19:40:52.212Z,6.5
2019-03-18T19:41:18.229Z,6.5
2019-03-18T19:41:44.230Z,6.5
2019-03-18T19:42:10.316Z,6.5
2019-03-18T19:42:36.233Z,6.5
2019-03-18T19:43:02.670Z,6.5
2019-03-18T19:43:28.237Z,6.5
2019-03-18T19:43:55.994Z,6.5
2019-03-18T19:44:20.854Z,6.5
2019-03-18T19:44:46.255Z,6.5
2019-03-18T19:45:12.209Z,5.7
2019-03-18T19:45:38.237Z,5.7
2019-03-18T19:46:04.870Z,5.7
2019-03-18T19:46:30.335Z,5.7
2019-03-18T19:46:56.318Z,5.7
2019-03-18T19:47:22.213Z,5.7
2019-03-18T19:47:48.239Z,5.7
2019-03-18T19:48:14.226Z,5.7
2019-03-18T19:48:40.334Z,5.7
2019-03-18T19:49:06.263Z,5.7
2019-03-18T19:49:32.249Z,5.7
2019-03-18T19:49:58.252Z,5.7
2019-03-18T19:50:24.629Z,5.7
2019-03-18T19:50:50.326Z,5.7
2019-03-18T19:51:16.251Z,5.7
2019-03-18T19:51:42.227Z,5.7
2019-03-18T19:52:08.262Z,5.7
2019-03-18T19:52:34.326Z,5.7
2019-03-18T19:53:00.342Z,5.7
2019-03-18T19:53:26.260Z,5.7
2019-03-18T19:53:52.234Z,5.7
2019-03-18T19:54:18.258Z,5.7
2019-03-18T19:54:44.237Z,5.7
2019-03-18T19:55:10.416Z,5.5
2019-03-18T19:55:36.253Z,5.5
2019-03-18T19:56:02.237Z,5.5
2019-03-18T19:56:28.258Z,5.5
2019-03-18T19:56:54.234Z,5.5
2019-03-18T19:57:20.357Z,5.5
2019-03-18T19:57:46.346Z,5.5
2019-03-18T19:58:12.236Z,5.5
2019-03-18T19:58:38.271Z,5.5
2019-03-18T19:59:04.234Z,5.5
2019-03-18T19:59:30.347Z,5.5
2019-03-18T19:59:56.274Z,4.7
2019-03-18T20:00:22.261Z,4.7
2019-03-18T20:00:48.260Z,4.7
2019-03-18T20:01:14.262Z,4.7
2019-03-18T20:01:40.349Z,4.7
2019-03-18T20:02:06.266Z,4.7
2019-03-18T20:02:32.242Z,4.7
2019-03-18T20:02:58.807Z,4.7
2019-03-18T20:03:24.336Z,4.7
2019-03-18T20:03:50.357Z,4.7
2019-03-18T20:04:16.270Z,4.7
2019-03-18T20:04:42.243Z,4.7
2019-03-18T20:05:08.280Z,5.4
2019-03-18T20:05:34.241Z,5.4
2019-03-18T20:06:00.363Z,5.4
2019-03-18T20:06:26.383Z,5.4
2019-03-18T20:06:52.250Z,5.4
2019-03-18T20:07:18.274Z,5.4
2019-03-18T20:07:44.252Z,5.4
2019-03-18T20:08:10.362Z,5.4
2019-03-18T20:08:36.285Z,5.4
2019-03-18T20:09:02.328Z,5.4
2019-03-18T20:09:28.269Z,5.4
2019-03-18T20:09:54.250Z,5.2
2019-03-18T20:10:20.355Z,5.2
2019-03-18T20:10:46.276Z,5.2
2019-03-18T20:11:12.333Z,5.2
2019-03-18T20:11:38.294Z,5.2
2019-03-18T20:12:04.357Z,5.2
2019-03-18T20:12:30.366Z,5.2
2019-03-18T20:12:56.279Z,5.2
2019-03-18T20:13:22.252Z,5.2
2019-03-18T20:13:48.284Z,5.2
2019-03-18T20:14:14.270Z,5.2
2019-03-18T20:14:40.363Z,5.2
2019-03-18T20:15:06.308Z,5
2019-03-18T20:15:32.256Z,5
2019-03-18T20:15:58.287Z,5
2019-03-18T20:16:24.258Z,5
2019-03-18T20:16:50.371Z,5
2019-03-18T20:17:16.288Z,5
2019-03-18T20:17:42.289Z,5
2019-03-18T20:18:08.290Z,5
2019-03-18T20:18:34.259Z,5
2019-03-18T20:19:00.374Z,5
2019-03-18T20:19:26.286Z,5
2019-03-18T20:19:52.271Z,12.3
2019-03-18T20:20:18.365Z,12.3
2019-03-18T20:20:44.287Z,12.3
2019-03-18T20:21:10.391Z,12.3
2019-03-18T20:21:36.295Z,12.3
2019-03-18T20:22:02.279Z,12.3
2019-03-18T20:22:28.326Z,12.3
2019-03-18T20:22:54.371Z,12.3
2019-03-18T20:23:20.406Z,12.3
2019-03-18T20:23:46.303Z,12.3
2019-03-18T20:24:12.268Z,12.3
2019-03-18T20:24:38.427Z,12.3
2019-03-18T20:25:04.269Z,12.9
2019-03-18T20:25:30.403Z,12.9
2019-03-18T20:25:56.299Z,12.9
2019-03-18T20:26:22.275Z,12.9
2019-03-18T20:26:48.398Z,12.9
2019-03-18T20:27:14.353Z,12.9
2019-03-18T20:27:40.377Z,12.9
2019-03-18T20:28:06.305Z,12.9
2019-03-18T20:28:32.445Z,12.9
2019-03-18T20:28:58.312Z,12.9
2019-03-18T20:29:24.278Z,12.9
2019-03-18T20:29:50.386Z,16.4
2019-03-18T20:30:16.307Z,16.4
2019-03-18T20:30:42.289Z,16.4
2019-03-18T20:31:08.381Z,16.4
2019-03-18T20:31:34.301Z,16.4
2019-03-18T20:32:00.417Z,16.4
2019-03-18T20:32:26.309Z,16.4
2019-03-18T20:32:52.280Z,16.4
2019-03-18T20:33:18.362Z,16.4
2019-03-18T20:33:44.397Z,16.4
2019-03-18T20:34:10.386Z,16.4
2019-03-18T20:34:36.321Z,16.4
2019-03-18T20:35:02.284Z,10.6
2019-03-18T20:35:28.309Z,10.6
2019-03-18T20:35:54.296Z,10.6
2019-03-18T20:36:20.464Z,10.6
2019-03-18T20:36:46.312Z,10.6
2019-03-18T20:37:12.297Z,10.6
2019-03-18T20:37:38.318Z,10.6
2019-03-18T20:38:04.302Z,10.6
2019-03-18T20:38:30.395Z,10.6
2019-03-18T20:38:56.359Z,10.6
2019-03-18T20:39:22.333Z,10.6
2019-03-18T20:39:48.306Z,15.3
2019-03-18T20:40:14.280Z,15.3
2019-03-18T20:40:40.394Z,15.3
2019-03-18T20:41:06.308Z,15.3
2019-03-18T20:41:32.305Z,15.3
2019-03-18T20:41:58.308Z,15.3
2019-03-18T20:42:24.311Z,15.3
2019-03-18T20:42:50.384Z,15.3
2019-03-18T20:43:16.309Z,15.3
2019-03-18T20:43:42.284Z,15.3
2019-03-18T20:44:08.310Z,15.3
2019-03-18T20:44:34.307Z,15.3
2019-03-18T20:45:00.391Z,12.2
2019-03-18T20:45:26.310Z,12.2
2019-03-18T20:45:52.284Z,12.2
2019-03-18T20:46:18.312Z,12.2
2019-03-18T20:46:44.673Z,12.2
2019-03-18T20:47:10.393Z,12.2
2019-03-18T20:47:36.315Z,12.2
2019-03-18T20:48:02.286Z,12.2
2019-03-18T20:48:28.316Z,12.2
2019-03-18T20:48:54.293Z,12.2
2019-03-18T20:49:20.396Z,12.2
2019-03-18T20:49:46.440Z,12.7
2019-03-18T20:50:12.294Z,12.7
2019-03-18T20:50:38.320Z,12.7
2019-03-18T20:51:04.338Z,12.7
2019-03-18T20:51:30.402Z,12.7
2019-03-18T20:51:56.322Z,12.7
2019-03-18T20:52:22.378Z,12.7
2019-03-18T20:52:48.324Z,12.7
2019-03-18T20:53:14.305Z,12.7
2019-03-18T20:53:40.410Z,12.7
2019-03-18T20:54:06.329Z,12.7
2019-03-18T20:54:32.308Z,12.7
2019-03-18T20:54:58.342Z,12.7
2019-03-18T20:55:24.400Z,12.7
2019-03-18T20:55:50.417Z,12.7
2019-03-18T20:56:16.331Z,12.7
2019-03-18T20:56:42.306Z,12.7
2019-03-18T20:57:08.812Z,12.7
2019-03-18T20:57:34.318Z,12.7
2019-03-18T20:58:00.487Z,12.7
2019-03-18T20:58:26.339Z,12.7
2019-03-18T20:58:52.310Z,12.7
2019-03-18T20:59:18.362Z,12.7
2019-03-18T20:59:44.313Z,14.5
2019-03-18T21:00:10.441Z,14.5
2019-03-18T21:00:36.411Z,14.5
2019-03-18T21:01:02.320Z,14.5
2019-03-18T21:01:28.338Z,14.5
2019-03-18T21:01:54.314Z,14.5
2019-03-18T21:02:20.428Z,14.5
2019-03-18T21:02:46.347Z,14.5
2019-03-18T21:03:12.915Z,14.5
2019-03-18T21:03:39.453Z,14.5
2019-03-18T21:04:04.339Z,14.5
2019-03-18T21:04:30.432Z,14.5
2019-03-18T21:04:56.343Z,14.4
2019-03-18T21:05:22.330Z,14.4
2019-03-18T21:05:48.357Z,14.4
2019-03-18T21:06:14.415Z,14.4
2019-03-18T21:06:40.438Z,14.4
2019-03-18T21:07:06.348Z,14.4
2019-03-18T21:07:32.319Z,14.4
2019-03-18T21:07:58.345Z,14.4
2019-03-18T21:08:24.329Z,14.4
2019-03-18T21:08:50.498Z,14.4
2019-03-18T21:09:16.351Z,14.4
2019-03-18T21:09:42.328Z,15.4
2019-03-18T21:10:08.352Z,15.4
2019-03-18T21:10:34.324Z,15.4
2019-03-18T21:11:00.429Z,15.4
2019-03-18T21:11:26.368Z,15.4
2019-03-18T21:11:52.405Z,15.4
2019-03-18T21:12:18.345Z,15.4
2019-03-18T21:12:44.324Z,15.4
2019-03-18T21:13:10.436Z,15.4
2019-03-18T21:13:36.357Z,15.4
2019-03-18T21:14:02.431Z,15.4
2019-03-18T21:14:28.363Z,15.4
2019-03-18T21:14:54.427Z,12.5
2019-03-18T21:15:20.443Z,12.5
2019-03-18T21:15:46.375Z,12.5
2019-03-18T21:16:12.334Z,12.5
2019-03-18T21:16:38.360Z,12.5
2019-03-18T21:17:04.332Z,12.5
2019-03-18T21:17:30.441Z,12.5
2019-03-18T21:17:56.367Z,12.5
2019-03-18T21:18:22.340Z,12.5
2019-03-18T21:18:48.370Z,12.5
2019-03-18T21:19:14.333Z,12.5
2019-03-18T21:19:40.443Z,13.8
2019-03-18T21:20:06.369Z,13.8
2019-03-18T21:20:32.365Z,13.8
2019-03-18T21:20:58.362Z,13.8
2019-03-18T21:21:24.339Z,13.8
2019-03-18T21:21:50.448Z,13.8
2019-03-18T21:22:16.363Z,13.8
2019-03-18T21:22:42.352Z,13.8
2019-03-18T21:23:08.366Z,13.8
2019-03-18T21:23:34.370Z,13.8
2019-03-18T21:24:26.369Z,13.8
2019-03-18T21:24:52.336Z,12
2019-03-18T21:25:18.364Z,12
2019-03-18T21:25:44.348Z,12
2019-03-18T21:26:10.526Z,12
2019-03-18T21:26:36.372Z,12
2019-03-18T21:27:02.342Z,12
2019-03-18T21:27:28.371Z,12
2019-03-18T21:27:54.347Z,12
2019-03-18T21:28:20.461Z,12
2019-03-18T21:28:46.444Z,12
2019-03-18T21:29:12.345Z,12
2019-03-18T21:29:38.375Z,13
2019-03-18T21:30:04.345Z,13
2019-03-18T21:30:30.448Z,13
2019-03-18T21:30:56.383Z,13
2019-03-18T21:31:22.373Z,13
2019-03-18T21:31:48.370Z,13
2019-03-18T21:32:14.375Z,13
2019-03-18T21:32:40.464Z,13
2019-03-18T21:33:06.382Z,13
2019-03-18T21:33:32.352Z,13
2019-03-18T21:33:58.383Z,13
2019-03-18T21:34:24.383Z,13
2019-03-18T21:34:50.455Z,8.6
2019-03-18T21:35:16.382Z,8.6
2019-03-18T21:35:42.354Z,8.6
2019-03-18T21:36:08.383Z,8.6
2019-03-18T21:36:34.368Z,8.6
2019-03-18T21:37:00.533Z,8.6
2019-03-18T21:37:26.388Z,8.6
2019-03-18T21:37:52.365Z,8.6
2019-03-18T21:38:18.388Z,8.6
2019-03-18T21:38:44.363Z,8.6
2019-03-18T21:39:10.500Z,8.6
2019-03-18T21:39:36.471Z,13.5
2019-03-18T21:40:02.363Z,13.5
2019-03-18T21:40:28.392Z,13.5
2019-03-18T21:40:54.365Z,13.5
2019-03-18T21:41:29.159Z,13.5
2019-03-18T21:41:46.397Z,13.5
2019-03-18T21:42:12.388Z,13.5
2019-03-18T21:42:38.460Z,13.5
2019-03-18T21:43:04.393Z,13.5
2019-03-18T21:43:30.471Z,13.5
2019-03-18T21:43:56.400Z,13.5
2019-03-18T21:44:22.380Z,13.5
2019-03-18T21:44:48.400Z,10.7
2019-03-18T21:45:14.465Z,10.7
2019-03-18T21:45:40.481Z,10.7
2019-03-18T21:46:06.416Z,10.7
2019-03-18T21:46:32.376Z,10.7
2019-03-18T21:46:58.399Z,10.7
2019-03-18T21:47:24.373Z,10.7
2019-03-18T21:47:50.490Z,10.7
2019-03-18T21:48:16.478Z,10.7
2019-03-18T21:48:42.375Z,10.7
2019-03-18T21:49:08.402Z,10.7
2019-03-18T21:49:34.373Z,10.7
2019-03-18T21:50:00.480Z,8.8
2019-03-18T21:50:26.415Z,8.8
2019-03-18T21:50:52.454Z,8.8
2019-03-18T21:51:18.409Z,8.8
2019-03-18T21:51:44.384Z,8.8
2019-03-18T21:52:10.487Z,8.8
2019-03-18T21:52:36.405Z,8.8
2019-03-18T21:53:02.385Z,8.8
2019-03-18T21:53:28.478Z,8.8
2019-03-18T21:53:54.405Z,8.8
2019-03-18T21:54:20.487Z,8.8
2019-03-18T21:54:46.409Z,10.7
2019-03-18T21:55:12.384Z,10.7
2019-03-18T21:55:38.418Z,10.7
2019-03-18T21:56:04.415Z,10.7
2019-03-18T21:56:30.570Z,10.7
2019-03-18T21:56:56.415Z,10.7
2019-03-18T21:57:22.387Z,10.7
2019-03-18T21:57:48.426Z,10.7
2019-03-18T21:58:14.385Z,10.7
2019-03-18T21:58:40.503Z,10.7
2019-03-18T21:59:06.522Z,10.7
2019-03-18T21:59:32.389Z,10.7
2019-03-18T21:59:58.416Z,10.8
2019-03-18T22:00:24.392Z,10.8
2019-03-18T22:00:50.498Z,10.8
2019-03-18T22:01:16.422Z,10.8
2019-03-18T22:01:42.471Z,10.8
2019-03-18T22:02:08.414Z,10.8
2019-03-18T22:02:34.427Z,10.8
2019-03-18T22:03:00.502Z,10.8
2019-03-18T22:03:26.418Z,10.8
2019-03-18T22:03:52.395Z,10.8
2019-03-18T22:04:18.422Z,10.8
2019-03-18T22:04:44.499Z,9.5
2019-03-18T22:05:10.503Z,9.5
2019-03-18T22:05:36.433Z,9.5
2019-03-18T22:06:02.401Z,9.5
2019-03-18T22:06:28.427Z,9.5
2019-03-18T22:06:54.398Z,9.5
2019-03-18T22:07:20.505Z,9.5
2019-03-18T22:07:46.430Z,9.5
2019-03-18T22:08:12.407Z,9.5
2019-03-18T22:08:38.441Z,9.5
2019-03-18T22:09:04.404Z,9.5
2019-03-18T22:09:30.552Z,9.5
2019-03-18T22:09:56.437Z,8.4
2019-03-18T22:10:22.476Z,8.4
2019-03-18T22:10:48.433Z,8.4
2019-03-18T22:11:14.410Z,8.4
2019-03-18T22:11:40.508Z,8.4
2019-03-18T22:12:06.481Z,8.4
2019-03-18T22:12:33.301Z,8.4
2019-03-18T22:12:58.430Z,8.4
2019-03-18T22:13:24.435Z,8.4
2019-03-18T22:13:50.518Z,8.4
2019-03-18T22:14:16.442Z,8.4
2019-03-18T22:14:42.412Z,7.2
2019-03-18T22:15:08.436Z,7.2
2019-03-18T22:15:34.437Z,7.2
2019-03-18T22:16:00.517Z,7.2
2019-03-18T22:16:26.436Z,7.2
2019-03-18T22:16:52.533Z,7.2
2019-03-18T22:17:18.446Z,7.2
2019-03-18T22:17:44.427Z,7.2
2019-03-18T22:18:10.596Z,7.2
2019-03-18T22:18:36.440Z,7.2
2019-03-18T22:19:02.420Z,7.2
2019-03-18T22:19:28.441Z,7.2
2019-03-18T22:19:54.421Z,7.2
2019-03-18T22:20:20.542Z,7.2
2019-03-18T22:20:46.520Z,7.2
2019-03-18T22:21:12.414Z,7.2
2019-03-18T22:21:38.448Z,7.2
2019-03-18T22:22:04.875Z,7.2
2019-03-18T22:22:30.518Z,7.2
2019-03-18T22:22:56.761Z,7.2
2019-03-18T22:23:22.438Z,7.2
2019-03-18T22:23:48.445Z,7.2
2019-03-18T22:24:14.447Z,7.2
2019-03-18T22:24:40.530Z,6.8
2019-03-18T22:25:06.450Z,6.8
2019-03-18T22:25:32.665Z,6.8
2019-03-18T22:25:58.452Z,6.8
2019-03-18T22:26:24.522Z,6.8
2019-03-18T22:26:50.526Z,6.8
2019-03-18T22:27:16.448Z,6.8
2019-03-18T22:27:42.428Z,6.8
2019-03-18T22:28:08.452Z,6.8
2019-03-18T22:28:34.425Z,6.8
2019-03-18T22:29:00.533Z,6.8
2019-03-18T22:29:26.533Z,6.8
2019-03-18T22:29:52.430Z,9.2
2019-03-18T22:30:18.456Z,9.2
2019-03-18T22:30:44.427Z,9.2
2019-03-18T22:31:10.542Z,9.2
2019-03-18T22:31:36.478Z,9.2
2019-03-18T22:32:02.511Z,9.2
2019-03-18T22:32:28.452Z,9.2
2019-03-18T22:32:54.435Z,9.2
2019-03-18T22:33:20.596Z,9.2
2019-03-18T22:33:46.461Z,9.2
2019-03-18T22:34:12.447Z,9.2
2019-03-18T22:34:38.463Z,6.9
2019-03-18T22:35:04.530Z,6.9
2019-03-18T22:35:30.541Z,6.9
2019-03-18T22:35:56.463Z,6.9
2019-03-18T22:36:22.439Z,6.9
2019-03-18T22:36:48.465Z,6.9
2019-03-18T22:37:14.450Z,6.9
2019-03-18T22:37:40.623Z,6.9
2019-03-18T22:38:06.551Z,6.9
2019-03-18T22:38:32.965Z,6.9
2019-03-18T22:38:58.471Z,6.9
2019-03-18T22:39:24.446Z,6.9
2019-03-18T22:39:50.586Z,9.1
2019-03-18T22:40:16.471Z,9.1
2019-03-18T22:40:42.516Z,9.1
2019-03-18T22:41:08.471Z,9.1
2019-03-18T22:41:34.838Z,9.1
2019-03-18T22:42:00.610Z,9.1
2019-03-18T22:42:26.478Z,9.1
2019-03-18T22:42:52.525Z,9.1
2019-03-18T22:43:18.473Z,9.1
2019-03-18T22:43:44.526Z,9.1
2019-03-18T22:44:10.559Z,9.1
2019-03-18T22:44:36.481Z,7.8
2019-03-18T22:45:02.466Z,7.8
2019-03-18T22:45:28.482Z,7.8
2019-03-18T22:45:54.544Z,7.8
2019-03-18T22:46:20.556Z,7.8
2019-03-18T22:46:46.490Z,7.8
2019-03-18T22:47:12.460Z,7.8
2019-03-18T22:47:38.479Z,7.8
2019-03-18T22:48:05.015Z,7.8
2019-03-18T22:48:30.637Z,7.8
2019-03-18T22:48:56.486Z,7.8
2019-03-18T22:49:22.457Z,7.8
2019-03-18T22:49:48.484Z,7.9
2019-03-18T22:50:14.463Z,7.9
2019-03-18T22:50:40.581Z,7.9
2019-03-18T22:51:06.566Z,7.9
2019-03-18T22:51:32.738Z,7.9
2019-03-18T22:51:58.483Z,7.9
2019-03-18T22:52:24.460Z,7.9
2019-03-18T22:52:50.565Z,7.9
2019-03-18T22:53:16.494Z,7.9
2019-03-18T22:53:42.487Z,7.9
2019-03-18T22:54:08.493Z,7.9
2019-03-18T22:54:34.493Z,9.2
2019-03-18T22:55:00.696Z,9.2
2019-03-18T22:55:26.491Z,9.2
2019-03-18T22:55:52.466Z,9.2
2019-03-18T22:56:18.491Z,9.2
2019-03-18T22:56:44.492Z,9.2
2019-03-18T22:57:10.587Z,9.2
2019-03-18T22:57:36.508Z,9.2
2019-03-18T22:58:02.475Z,9.2
2019-03-18T22:58:28.501Z,9.2